Time;durP1;ratioP1;P1;durP2;ratioP2;P2;SDS_P1;SDS_P2;PMS_P1;PMS_P2;Temp;Humidity;BMP_temperature;BMP_pressure;BME280_temperature;BME280_humidity;BME280_pressure;Samples;Min_cycle;Max_cycle;Signal;HPM_P1;HPM_P2
2024/03/07 00:00:03;;;;;;;35.13;12.47;;;6.00;99.90;;;;;;4980449;28;20479;-71
2024/03/07 00:02:33;;;;;;;18.40;9.53;;;6.00;99.90;;;;;;4973590;28;20469;-70
2024/03/07 00:05:00;;;;;;;24.07;11.93;;;5.90;99.90;;;;;;4975417;28;20475;-71
2024/03/07 00:07:27;;;;;;;31.30;15.83;;;5.80;99.90;;;;;;4973959;28;20490;-70
2024/03/07 00:09:55;;;;;;;28.83;10.77;;;5.70;99.90;;;;;;4976467;28;20478;-70
2024/03/07 00:12:23;;;;;;;29.93;14.30;;;5.80;99.90;;;;;;4973319;28;20458;-70
2024/03/07 00:14:50;;;;;;;23.33;12.80;;;5.80;99.90;;;;;;4976951;28;20436;-71
2024/03/07 00:17:17;;;;;;;26.17;10.40;;;5.70;99.90;;;;;;4976110;28;20434;-71
2024/03/07 00:19:47;;;;;;;26.60;11.00;;;5.70;99.90;;;;;;4983370;28;20493;-71
2024/03/07 00:22:14;;;;;;;25.20;12.37;;;5.80;99.90;;;;;;4982897;28;20440;-71
2024/03/07 00:24:42;;;;;;;24.63;11.40;;;5.80;99.90;;;;;;4977373;28;20859;-71
2024/03/07 00:27:09;;;;;;;20.83;10.63;;;5.80;99.90;;;;;;4974964;28;20555;-71
2024/03/07 00:29:37;;;;;;;20.23;11.77;;;5.60;99.90;;;;;;4970667;28;20453;-71
2024/03/07 00:32:05;;;;;;;20.77;10.57;;;5.60;99.90;;;;;;4974493;28;20934;-71
2024/03/07 00:34:32;;;;;;;34.10;13.10;;;5.50;99.90;;;;;;4973580;28;20471;-71
2024/03/07 00:37:00;;;;;;;25.33;12.20;;;5.60;99.90;;;;;;4973365;28;20485;-70
2024/03/07 00:39:27;;;;;;;19.10;11.03;;;5.50;99.90;;;;;;4970816;28;20489;-70
2024/03/07 00:41:54;;;;;;;25.87;10.67;;;5.30;99.90;;;;;;4973264;28;20433;-70
2024/03/07 00:44:21;;;;;;;28.17;12.53;;;5.20;99.90;;;;;;4973436;28;20473;-70
2024/03/07 00:46:47;;;;;;;21.27;10.53;;;5.20;99.90;;;;;;4980436;28;20561;-71
2024/03/07 00:49:16;;;;;;;32.13;9.47;;;5.40;99.90;;;;;;4982022;28;20584;-71
2024/03/07 00:51:44;;;;;;;25.70;12.00;;;5.50;99.90;;;;;;4975736;28;20513;-71
2024/03/07 00:54:13;;;;;;;31.83;12.50;;;5.50;99.90;;;;;;4973279;28;20820;-71
2024/03/07 00:56:39;;;;;;;21.30;11.67;;;5.40;99.90;;;;;;4973045;28;20497;-71
2024/03/07 00:59:06;;;;;;;22.90;12.13;;;5.30;99.90;;;;;;4973035;28;20985;-71
2024/03/07 01:01:36;;;;;;;29.73;10.67;;;5.30;99.90;;;;;;4975434;28;20545;-71
2024/03/07 01:04:03;;;;;;;17.60;10.67;;;5.30;99.90;;;;;;4975551;28;20441;-71
2024/03/07 01:06:29;;;;;;;26.50;12.20;;;5.30;99.90;;;;;;4979721;28;20468;-73
2024/03/07 01:08:56;;;;;;;27.70;13.27;;;5.20;99.90;;;;;;4981174;28;20485;-69
2024/03/07 01:11:24;;;;;;;24.57;9.93;;;5.20;99.90;;;;;;4967510;28;20460;-71
2024/03/07 01:13:51;;;;;;;35.30;12.00;;;5.10;99.90;;;;;;4979240;28;20441;-72
2024/03/07 01:16:19;;;;;;;20.43;10.40;;;5.00;99.90;;;;;;4970383;28;20437;-71
2024/03/07 01:18:45;;;;;;;22.37;11.07;;;5.00;99.90;;;;;;4975848;28;20498;-70
2024/03/07 01:21:13;;;;;;;29.33;12.37;;;4.90;99.90;;;;;;4978456;28;20464;-70
2024/03/07 01:23:40;;;;;;;21.63;11.30;;;4.70;99.90;;;;;;4972982;28;20465;-71
2024/03/07 01:26:08;;;;;;;26.77;12.13;;;4.70;99.90;;;;;;4974759;28;20453;-71
2024/03/07 01:28:36;;;;;;;29.00;14.03;;;4.90;99.90;;;;;;4979681;28;20577;-70
2024/03/07 01:31:04;;;;;;;24.73;11.90;;;4.80;99.90;;;;;;4976519;28;20502;-69
2024/03/07 01:33:31;;;;;;;24.63;10.53;;;4.70;99.90;;;;;;4974257;28;20772;-71
2024/03/07 01:35:57;;;;;;;30.07;11.37;;;4.70;99.90;;;;;;4974025;28;20440;-70
2024/03/07 01:38:26;;;;;;;24.17;9.40;;;4.60;99.90;;;;;;4971352;28;21054;-70
2024/03/07 01:40:54;;;;;;;22.07;9.70;;;4.70;99.90;;;;;;4973322;28;20559;-71
2024/03/07 01:43:21;;;;;;;31.83;13.03;;;4.80;99.90;;;;;;4975785;28;20458;-71
2024/03/07 01:45:54;;;;;;;25.47;13.77;;;4.80;99.90;;;;;;4971973;28;20517;-71
2024/03/07 01:48:26;;;;;;;17.30;10.03;;;4.70;99.90;;;;;;4977179;28;20441;-70
2024/03/07 01:50:53;;;;;;;31.73;11.77;;;4.60;99.90;;;;;;4966978;28;20467;-71
2024/03/07 01:53:20;;;;;;;13.60;7.60;;;4.70;99.90;;;;;;4969627;28;20455;-70
2024/03/07 01:55:47;;;;;;;20.67;9.33;;;4.60;99.90;;;;;;4976162;28;20432;-70
2024/03/07 01:58:17;;;;;;;24.80;11.57;;;4.60;99.90;;;;;;4971137;28;20457;-70
2024/03/07 02:00:44;;;;;;;28.37;11.83;;;4.50;99.90;;;;;;4982174;28;20465;-70
2024/03/07 02:03:13;;;;;;;17.40;10.97;;;4.50;99.90;;;;;;4972715;28;20907;-70
2024/03/07 02:05:40;;;;;;;27.40;13.97;;;4.50;99.90;;;;;;4972358;28;20467;-70
2024/03/07 02:08:07;;;;;;;23.10;10.80;;;4.50;99.90;;;;;;4964572;28;20452;-71
2024/03/07 02:10:33;;;;;;;22.17;10.07;;;4.30;99.90;;;;;;4976561;28;20953;-71
2024/03/07 02:13:00;;;;;;;21.63;11.93;;;4.10;99.90;;;;;;4974016;28;20481;-71
2024/03/07 02:15:27;;;;;;;18.43;10.80;;;4.10;99.90;;;;;;4969961;28;21201;-71
2024/03/07 02:17:54;;;;;;;21.53;8.03;;;4.10;99.90;;;;;;4970884;28;20481;-71
2024/03/07 02:20:23;;;;;;;21.93;9.83;;;4.20;99.90;;;;;;4978329;28;21333;-71
2024/03/07 02:22:51;;;;;;;18.43;10.37;;;4.10;99.90;;;;;;4970967;28;20544;-71
2024/03/07 02:25:18;;;;;;;22.40;10.90;;;4.10;99.90;;;;;;4976055;28;20494;-70
2024/03/07 02:27:45;;;;;;;17.53;8.23;;;4.20;99.90;;;;;;4973518;28;20472;-71
2024/03/07 02:30:13;;;;;;;19.07;10.50;;;4.30;99.90;;;;;;4968625;28;20862;-71
2024/03/07 02:32:39;;;;;;;15.37;7.70;;;4.20;99.90;;;;;;4970929;28;20437;-71
2024/03/07 02:35:08;;;;;;;20.30;8.90;;;4.00;99.90;;;;;;4972241;28;20469;-71
2024/03/07 02:37:35;;;;;;;17.37;10.43;;;4.10;99.90;;;;;;4975498;28;20934;-71
2024/03/07 02:40:03;;;;;;;16.10;9.17;;;4.00;99.90;;;;;;4975682;28;20501;-71
2024/03/07 02:42:30;;;;;;;16.33;8.93;;;4.00;99.90;;;;;;4968197;28;20514;-70
2024/03/07 02:44:59;;;;;;;22.13;11.63;;;4.10;99.90;;;;;;4968799;28;20433;-70
2024/03/07 02:47:26;;;;;;;30.23;10.80;;;4.20;99.90;;;;;;4973565;28;20438;-70
2024/03/07 02:49:53;;;;;;;25.00;10.70;;;4.40;99.90;;;;;;4964555;28;20845;-69
2024/03/07 02:52:20;;;;;;;17.63;8.47;;;4.40;99.90;;;;;;4976133;28;20444;-70
2024/03/07 02:54:47;;;;;;;19.47;10.40;;;4.30;99.90;;;;;;4971618;28;20494;-71
2024/03/07 02:57:15;;;;;;;12.77;7.47;;;4.40;99.90;;;;;;4978827;28;20432;-70
2024/03/07 02:59:42;;;;;;;24.10;10.10;;;4.30;99.90;;;;;;4977652;28;20479;-70
2024/03/07 03:02:09;;;;;;;14.67;9.60;;;4.40;99.90;;;;;;4972885;28;20525;-70
2024/03/07 03:04:36;;;;;;;14.43;7.83;;;4.40;99.90;;;;;;4976909;28;20433;-70
2024/03/07 03:07:03;;;;;;;19.07;9.83;;;4.50;99.90;;;;;;4976800;28;20466;-70
2024/03/07 03:09:29;;;;;;;16.00;7.47;;;4.40;99.90;;;;;;4975271;28;20481;-70
2024/03/07 03:11:56;;;;;;;10.23;9.13;;;4.40;99.90;;;;;;4977038;28;20437;-71
2024/03/07 03:14:24;;;;;;;18.37;8.40;;;4.30;99.90;;;;;;4966816;28;20820;-70
2024/03/07 03:16:51;;;;;;;17.37;8.17;;;4.30;99.90;;;;;;4971898;28;20437;-70
2024/03/07 03:19:17;;;;;;;13.10;6.63;;;4.20;99.90;;;;;;4962778;28;20471;-70
2024/03/07 03:21:44;;;;;;;27.10;9.07;;;4.10;99.90;;;;;;4963382;28;20469;-70
2024/03/07 03:24:11;;;;;;;20.23;9.10;;;4.10;99.90;;;;;;4968829;28;20443;-70
2024/03/07 03:26:38;;;;;;;20.33;9.77;;;4.10;99.90;;;;;;4960590;28;20437;-71
2024/03/07 03:29:06;;;;;;;8.77;6.50;;;4.20;99.90;;;;;;4956817;28;20461;-71
2024/03/07 03:31:35;;;;;;;17.47;7.60;;;4.20;99.90;;;;;;4967700;28;20524;-70
2024/03/07 03:34:02;;;;;;;10.73;7.17;;;4.10;99.90;;;;;;4965745;28;20697;-70
2024/03/07 03:36:29;;;;;;;29.33;8.93;;;4.00;99.90;;;;;;4962572;28;20433;-71
2024/03/07 03:38:56;;;;;;;21.20;8.70;;;4.00;99.90;;;;;;4964511;28;20487;-71
2024/03/07 03:41:23;;;;;;;22.83;10.10;;;3.90;99.90;;;;;;4965628;28;20466;-71
2024/03/07 03:43:50;;;;;;;20.37;10.70;;;4.00;99.90;;;;;;4965750;28;20451;-70
2024/03/07 03:46:17;;;;;;;15.47;10.00;;;4.10;99.90;;;;;;4958657;28;20441;-71
2024/03/07 03:48:45;;;;;;;15.97;8.20;;;4.10;99.90;;;;;;4969544;28;20575;-71
2024/03/07 03:51:12;;;;;;;22.20;11.27;;;4.10;99.90;;;;;;4970942;28;20553;-71
2024/03/07 03:53:40;;;;;;;16.67;9.67;;;4.20;99.90;;;;;;4975428;28;20461;-71
2024/03/07 03:56:11;;;;;;;18.77;7.57;;;4.30;99.90;;;;;;4975499;28;20551;-73
2024/03/07 03:58:40;;;;;;;20.20;8.20;;;4.40;99.90;;;;;;4971686;28;20456;-71
2024/03/07 04:01:12;;;;;;;15.47;8.27;;;4.30;99.90;;;;;;4976507;28;20497;-71
2024/03/07 04:03:39;;;;;;;15.13;8.77;;;4.20;99.90;;;;;;4977713;28;20511;-71
2024/03/07 04:06:08;;;;;;;16.33;8.23;;;4.20;99.90;;;;;;4976666;28;20466;-71
2024/03/07 04:08:36;;;;;;;16.90;9.17;;;4.20;99.90;;;;;;4970249;28;20474;-70
2024/03/07 04:11:03;;;;;;;18.50;8.80;;;4.20;99.90;;;;;;4976221;28;20549;-70
2024/03/07 04:13:30;;;;;;;15.23;9.17;;;4.20;99.90;;;;;;4976828;28;20516;-70
2024/03/07 04:15:57;;;;;;;18.23;9.43;;;4.30;99.90;;;;;;4969504;28;20448;-70
2024/03/07 04:18:23;;;;;;;18.30;11.70;;;4.40;99.90;;;;;;4967654;28;20465;-69
2024/03/07 04:20:51;;;;;;;15.03;9.30;;;4.40;99.90;;;;;;4969043;28;20833;-69
2024/03/07 04:23:20;;;;;;;20.63;9.03;;;4.40;99.90;;;;;;4973059;28;20846;-70
2024/03/07 04:25:47;;;;;;;20.53;12.00;;;4.50;99.90;;;;;;4971319;28;20873;-70
2024/03/07 04:28:12;;;;;;;14.90;10.73;;;4.50;99.90;;;;;;4966946;28;20437;-70
2024/03/07 04:30:39;;;;;;;17.87;9.13;;;4.50;99.90;;;;;;4976817;28;20452;-71
2024/03/07 04:33:06;;;;;;;18.03;10.17;;;4.20;99.90;;;;;;4973004;28;20267;-71
2024/03/07 04:35:33;;;;;;;29.00;11.10;;;4.20;99.90;;;;;;4974843;28;21031;-71
2024/03/07 04:38:00;;;;;;;18.33;9.07;;;4.20;99.90;;;;;;4973748;28;20497;-71
2024/03/07 04:40:28;;;;;;;18.17;10.57;;;4.00;99.90;;;;;;4974303;28;20465;-71
2024/03/07 04:42:56;;;;;;;15.00;7.63;;;3.70;99.90;;;;;;4973746;28;20451;-69
2024/03/07 04:45:23;;;;;;;13.03;8.10;;;3.60;99.90;;;;;;4978429;28;22311;-70
2024/03/07 04:47:49;;;;;;;17.90;9.20;;;3.70;99.90;;;;;;4983508;28;20488;-71
2024/03/07 04:50:17;;;;;;;18.10;10.10;;;3.70;99.90;;;;;;4979927;28;20486;-71
2024/03/07 04:52:45;;;;;;;24.73;9.70;;;3.70;99.90;;;;;;4978450;28;20464;-70
2024/03/07 04:55:13;;;;;;;15.50;8.43;;;3.60;99.90;;;;;;4968468;28;20441;-71
2024/03/07 04:57:41;;;;;;;18.13;11.20;;;3.60;99.90;;;;;;4980585;28;20470;-72
2024/03/07 05:00:13;;;;;;;20.50;11.17;;;3.40;99.90;;;;;;4972573;28;20623;-71
2024/03/07 05:02:40;;;;;;;17.20;10.80;;;3.30;99.90;;;;;;4974301;28;20472;-71
2024/03/07 05:05:07;;;;;;;23.63;8.87;;;3.30;99.90;;;;;;4971776;28;20469;-71
2024/03/07 05:07:35;;;;;;;23.97;10.10;;;3.40;99.90;;;;;;4974700;28;20467;-71
2024/03/07 05:10:04;;;;;;;19.37;11.30;;;3.30;99.90;;;;;;4973235;28;20484;-70
2024/03/07 05:12:31;;;;;;;16.63;10.20;;;3.40;99.90;;;;;;4975782;28;20444;-72
2024/03/07 05:14:59;;;;;;;11.27;7.17;;;3.30;99.90;;;;;;4972787;28;20484;-70
2024/03/07 05:17:25;;;;;;;14.10;7.37;;;3.30;99.90;;;;;;4970297;28;20433;-71
2024/03/07 05:19:52;;;;;;;22.73;9.90;;;3.30;99.90;;;;;;4971311;28;20818;-71
2024/03/07 05:22:22;;;;;;;15.33;7.80;;;3.20;99.90;;;;;;4971646;28;20457;-71
2024/03/07 05:24:50;;;;;;;23.80;11.27;;;3.30;99.90;;;;;;4974930;28;20441;-71
2024/03/07 05:27:16;;;;;;;18.93;10.67;;;3.40;99.90;;;;;;4974219;28;20437;-70
2024/03/07 05:29:43;;;;;;;35.00;10.00;;;3.30;99.90;;;;;;4977940;28;20460;-69
2024/03/07 05:32:25;;;;;;;29.47;8.90;;;3.30;99.90;;;;;;4973135;28;20462;-72
2024/03/07 05:34:53;;;;;;;18.10;11.13;;;3.20;99.90;;;;;;4973611;28;20430;-71
2024/03/07 05:37:21;;;;;;;14.60;7.43;;;3.20;99.90;;;;;;4975875;28;20462;-71
2024/03/07 05:39:48;;;;;;;21.83;9.73;;;3.20;99.90;;;;;;4968389;28;20846;-71
2024/03/07 05:42:15;;;;;;;20.50;9.17;;;3.30;99.90;;;;;;4969866;28;20481;-71
2024/03/07 05:44:42;;;;;;;15.00;8.63;;;3.20;99.90;;;;;;4976127;28;20444;-72
2024/03/07 05:47:09;;;;;;;27.13;12.17;;;3.10;99.90;;;;;;4973464;28;21032;-70
2024/03/07 05:49:38;;;;;;;18.70;9.60;;;3.10;99.90;;;;;;4969278;28;20482;-71
2024/03/07 05:52:05;;;;;;;23.53;10.40;;;3.10;99.90;;;;;;4990215;23;21381;-68
2024/03/07 05:54:32;;;;;;;17.67;9.00;;;3.10;99.90;;;;;;4992623;28;20444;-66
2024/03/07 05:56:59;;;;;;;16.73;10.87;;;3.20;99.90;;;;;;4994377;28;20429;-66
2024/03/07 05:59:28;;;;;;;24.73;11.13;;;3.00;99.90;;;;;;4986984;28;20636;-67
2024/03/07 06:01:55;;;;;;;24.00;12.70;;;3.00;99.90;;;;;;4967640;28;20486;-67
2024/03/07 06:04:22;;;;;;;27.43;12.73;;;3.10;99.90;;;;;;4967211;28;20441;-67
2024/03/07 06:06:51;;;;;;;17.17;9.50;;;3.20;99.90;;;;;;4970950;28;20906;-67
2024/03/07 06:09:21;;;;;;;24.30;10.67;;;3.20;99.90;;;;;;4980510;28;20468;-67
2024/03/07 06:11:48;;;;;;;19.20;10.10;;;3.20;99.90;;;;;;4979410;28;20532;-67
2024/03/07 06:14:16;;;;;;;46.80;11.57;;;3.10;99.90;;;;;;4988336;28;20454;-67
2024/03/07 06:16:43;;;;;;;21.50;12.33;;;3.30;99.90;;;;;;4985741;28;20451;-67
2024/03/07 06:19:11;;;;;;;16.40;11.17;;;3.40;99.90;;;;;;4977477;28;20508;-67
2024/03/07 06:21:40;;;;;;;25.47;11.10;;;3.50;99.90;;;;;;4976799;28;20991;-68
2024/03/07 06:24:11;;;;;;;22.73;11.00;;;3.50;99.90;;;;;;4987024;28;20436;-67
2024/03/07 06:26:47;;;;;;;16.67;7.83;;;3.60;99.90;;;;;;4983316;28;20463;-68
2024/03/07 06:29:15;;;;;;;17.37;11.57;;;3.70;99.90;;;;;;4983552;28;20499;-67
2024/03/07 06:31:42;;;;;;;21.90;11.57;;;3.80;99.90;;;;;;4988979;28;20486;-68
2024/03/07 06:34:09;;;;;;;18.77;10.83;;;3.80;99.90;;;;;;4983327;28;20905;-68
2024/03/07 06:36:36;;;;;;;25.73;11.70;;;3.90;99.90;;;;;;4976066;28;20444;-67
2024/03/07 06:39:04;;;;;;;15.63;9.50;;;4.00;99.90;;;;;;4976052;28;20456;-68
2024/03/07 06:41:33;;;;;;;17.60;9.80;;;4.10;99.90;;;;;;4976343;28;20444;-67
2024/03/07 06:43:59;;;;;;;25.00;11.43;;;4.20;99.90;;;;;;4980475;28;20968;-67
2024/03/07 06:46:26;;;;;;;25.93;11.77;;;4.30;99.90;;;;;;4983209;28;20898;-67
2024/03/07 06:48:53;;;;;;;23.03;10.40;;;4.40;99.90;;;;;;4980950;28;21655;-67
2024/03/07 06:51:20;;;;;;;16.33;9.80;;;4.50;99.90;;;;;;4975224;28;20871;-68
2024/03/07 06:53:47;;;;;;;18.07;9.87;;;4.50;99.90;;;;;;4977691;28;20449;-67
2024/03/07 06:56:14;;;;;;;23.17;11.37;;;4.50;99.90;;;;;;4978032;28;20471;-67
2024/03/07 06:58:42;;;;;;;8.07;3.77;;;4.60;99.90;;;;;;4980701;28;20441;-67
2024/03/07 07:01:12;;;;;;;13.77;10.00;;;4.60;99.90;;;;;;4984990;28;23298;-67
2024/03/07 07:03:38;;;;;;;13.60;8.10;;;4.50;99.90;;;;;;4976488;28;20466;-67
2024/03/07 07:06:06;;;;;;;15.33;8.77;;;4.50;99.90;;;;;;4974506;28;20813;-69
2024/03/07 07:08:33;;;;;;;20.33;11.90;;;4.60;99.90;;;;;;4975917;28;20488;-68
2024/03/07 07:11:00;;;;;;;14.60;7.90;;;4.80;99.90;;;;;;4982777;28;20879;-68
2024/03/07 07:13:27;;;;;;;22.83;13.20;;;4.80;99.90;;;;;;4979732;28;20434;-68
2024/03/07 07:15:54;;;;;;;12.80;8.67;;;4.80;99.90;;;;;;4980641;28;20484;-68
2024/03/07 07:18:21;;;;;;;19.70;10.50;;;4.80;99.90;;;;;;4976841;28;20553;-68
2024/03/07 07:20:49;;;;;;;15.77;9.67;;;4.70;99.90;;;;;;4985131;28;20809;-68
2024/03/07 07:23:15;;;;;;;19.50;8.87;;;4.70;99.90;;;;;;4979942;28;20540;-66
2024/03/07 07:25:43;;;;;;;11.40;8.87;;;4.90;99.90;;;;;;4983199;28;20444;-67
2024/03/07 07:28:11;;;;;;;12.90;8.40;;;5.00;99.90;;;;;;4974492;28;20480;-67
2024/03/07 07:30:38;;;;;;;25.27;10.63;;;5.00;99.90;;;;;;4978862;28;20486;-67
2024/03/07 07:33:06;;;;;;;12.57;7.80;;;5.10;99.90;;;;;;4978997;28;20480;-67
2024/03/07 07:35:34;;;;;;;14.27;9.90;;;5.10;99.90;;;;;;4978603;28;20554;-67
2024/03/07 07:38:00;;;;;;;10.70;7.47;;;5.20;99.90;;;;;;4985064;28;20476;-67
2024/03/07 07:40:28;;;;;;;26.57;11.17;;;5.50;99.90;;;;;;4981975;28;20457;-67
2024/03/07 07:42:55;;;;;;;17.10;11.80;;;5.70;99.90;;;;;;4978368;28;21032;-67
2024/03/07 07:45:23;;;;;;;11.73;7.00;;;6.00;99.90;;;;;;4978444;28;20804;-67
2024/03/07 07:47:51;;;;;;;14.23;8.67;;;5.80;99.90;;;;;;4977460;28;20466;-67
2024/03/07 07:50:20;;;;;;;15.50;11.30;;;5.70;99.90;;;;;;4973585;28;20495;-67
2024/03/07 07:52:49;;;;;;;25.40;10.57;;;5.80;99.90;;;;;;4978332;28;20870;-67
2024/03/07 07:55:17;;;;;;;21.80;12.67;;;6.00;99.90;;;;;;4974640;28;20467;-68
2024/03/07 07:57:44;;;;;;;19.57;12.10;;;6.20;99.90;;;;;;4976842;28;20447;-67
2024/03/07 08:00:21;;;;;;;14.43;9.00;;;6.30;99.90;;;;;;4972069;28;20544;-68
2024/03/07 08:02:49;;;;;;;23.80;10.80;;;6.40;99.90;;;;;;4983505;28;20474;-67
2024/03/07 08:05:17;;;;;;;19.00;8.77;;;6.70;99.90;;;;;;4984258;28;20440;-67
2024/03/07 08:07:47;;;;;;;20.30;10.67;;;6.50;99.90;;;;;;4985538;28;20527;-67
2024/03/07 08:10:14;;;;;;;13.07;9.37;;;6.50;99.90;;;;;;4990660;28;20489;-67
2024/03/07 08:12:43;;;;;;;23.90;10.70;;;6.40;99.90;;;;;;4984867;28;20506;-67
2024/03/07 08:15:13;;;;;;;16.50;8.40;;;6.40;99.90;;;;;;4973152;28;20474;-67
2024/03/07 08:17:42;;;;;;;17.40;8.93;;;6.10;99.90;;;;;;4976302;28;20535;-68
2024/03/07 08:20:11;;;;;;;20.97;11.77;;;5.70;99.90;;;;;;4978748;28;20937;-69
2024/03/07 08:22:38;;;;;;;15.50;8.90;;;5.70;99.90;;;;;;4981434;28;21061;-67
2024/03/07 08:25:09;;;;;;;10.83;6.87;;;5.90;99.90;;;;;;4983986;28;20462;-67
2024/03/07 08:27:36;;;;;;;5.53;3.27;;;5.80;99.90;;;;;;4982473;28;20463;-68
2024/03/07 08:30:03;;;;;;;15.10;8.70;;;5.60;99.90;;;;;;4981181;28;20460;-68
2024/03/07 08:32:30;;;;;;;12.57;6.70;;;5.40;99.90;;;;;;4985444;28;20460;-68
2024/03/07 08:34:57;;;;;;;21.87;9.73;;;5.40;99.90;;;;;;4987259;28;20488;-68
2024/03/07 08:37:23;;;;;;;11.70;8.17;;;5.40;99.90;;;;;;4980925;28;20465;-68
2024/03/07 08:39:52;;;;;;;7.97;5.70;;;5.60;99.90;;;;;;4980022;28;20481;-68
2024/03/07 08:42:20;;;;;;;18.80;10.17;;;5.70;99.90;;;;;;4981984;28;20593;-69
2024/03/07 08:44:46;;;;;;;19.63;10.30;;;5.70;99.90;;;;;;4982853;28;20852;-67
2024/03/07 08:47:13;;;;;;;14.70;9.00;;;5.90;99.90;;;;;;4986889;28;20433;-66
2024/03/07 08:49:40;;;;;;;18.03;9.80;;;6.00;99.90;;;;;;4986267;28;20501;-66
2024/03/07 08:52:08;;;;;;;19.13;10.47;;;6.10;99.90;;;;;;4981660;28;20538;-66
2024/03/07 08:54:35;;;;;;;23.00;10.00;;;6.20;99.90;;;;;;4982864;28;20497;-66
2024/03/07 08:57:01;;;;;;;17.57;9.10;;;6.20;99.90;;;;;;4984799;28;20440;-67
2024/03/07 08:59:29;;;;;;;11.50;6.23;;;6.30;99.90;;;;;;4974701;28;20956;-66
2024/03/07 09:01:56;;;;;;;11.10;7.03;;;6.40;99.90;;;;;;4991759;28;20439;-67
2024/03/07 09:04:23;;;;;;;22.70;10.10;;;6.30;99.90;;;;;;4988690;28;20441;-67
2024/03/07 09:06:50;;;;;;;19.97;9.63;;;6.40;99.90;;;;;;4988128;28;20821;-68
2024/03/07 09:09:20;;;;;;;46.53;12.23;;;6.60;99.90;;;;;;4987213;28;20467;-67
2024/03/07 09:11:47;;;;;;;12.50;6.10;;;6.80;99.90;;;;;;4985212;28;20483;-66
2024/03/07 09:14:14;;;;;;;18.87;8.60;;;6.90;99.90;;;;;;4986820;28;20805;-68
2024/03/07 09:16:43;;;;;;;19.60;10.23;;;6.80;99.90;;;;;;4979137;28;20465;-67
2024/03/07 09:19:13;;;;;;;20.93;10.93;;;6.90;99.90;;;;;;4977539;28;20496;-67
2024/03/07 09:21:41;;;;;;;15.90;8.63;;;7.00;99.90;;;;;;4982969;28;20459;-68
2024/03/07 09:24:08;;;;;;;16.60;10.13;;;7.20;99.90;;;;;;4991637;28;20547;-67
2024/03/07 09:26:35;;;;;;;15.03;10.37;;;7.40;99.90;;;;;;4973951;28;20458;-68
2024/03/07 09:29:05;;;;;;;22.33;8.13;;;7.80;99.90;;;;;;4988496;28;20577;-68
2024/03/07 09:31:32;;;;;;;14.90;8.73;;;8.00;99.90;;;;;;4980273;28;20556;-68
2024/03/07 09:34:01;;;;;;;26.30;9.70;;;7.90;99.90;;;;;;4986058;28;20475;-67
2024/03/07 09:36:28;;;;;;;12.90;8.20;;;8.00;99.90;;;;;;4977013;28;20559;-68
2024/03/07 09:38:54;;;;;;;17.77;9.90;;;8.00;99.90;;;;;;4982680;28;20511;-68
2024/03/07 09:41:24;;;;;;;18.93;11.53;;;8.10;99.90;;;;;;4982202;28;20458;-68
2024/03/07 09:43:54;;;;;;;18.23;7.87;;;8.00;99.90;;;;;;4984088;28;20463;-68
2024/03/07 09:46:23;;;;;;;15.13;9.10;;;7.90;99.90;;;;;;4981343;28;20883;-68
2024/03/07 09:48:53;;;;;;;11.27;5.87;;;7.80;99.90;;;;;;4985947;28;20457;-68
2024/03/07 09:51:21;;;;;;;10.20;6.67;;;7.60;99.90;;;;;;4986649;28;20869;-68
2024/03/07 09:53:51;;;;;;;16.13;8.80;;;7.50;99.90;;;;;;4985173;28;20472;-68
2024/03/07 09:56:20;;;;;;;10.00;6.90;;;7.60;99.90;;;;;;4978798;28;20462;-68
2024/03/07 09:58:50;;;;;;;16.60;6.93;;;7.50;99.90;;;;;;4981159;28;20481;-68
2024/03/07 10:01:20;;;;;;;11.03;7.80;;;7.60;99.90;;;;;;4974986;28;20463;-67
2024/03/07 10:03:51;;;;;;;13.30;7.60;;;7.80;99.90;;;;;;4977123;28;20466;-68
2024/03/07 10:06:18;;;;;;;16.70;9.80;;;8.20;99.90;;;;;;4980184;28;20465;-66
2024/03/07 10:08:47;;;;;;;15.77;8.60;;;8.40;99.90;;;;;;4989594;28;20561;-67
2024/03/07 10:11:14;;;;;;;13.83;8.10;;;8.50;99.90;;;;;;4978182;28;20516;-67
2024/03/07 10:13:41;;;;;;;10.03;6.73;;;8.50;99.90;;;;;;4970034;28;20491;-67
2024/03/07 10:16:11;;;;;;;6.40;4.50;;;8.60;99.90;;;;;;4974271;28;20462;-67
2024/03/07 10:18:42;;;;;;;14.37;9.13;;;8.40;99.90;;;;;;4983543;28;20551;-67
2024/03/07 10:21:11;;;;;;;8.53;6.00;;;8.30;99.90;;;;;;4983208;28;20468;-67
2024/03/07 10:23:37;;;;;;;10.77;7.67;;;8.30;99.90;;;;;;4981895;28;20482;-67
2024/03/07 10:26:06;;;;;;;11.33;6.57;;;8.20;99.90;;;;;;4986875;28;20481;-67
2024/03/07 10:28:34;;;;;;;11.13;9.10;;;8.10;99.90;;;;;;4972059;28;20897;-67
2024/03/07 10:31:02;;;;;;;17.03;9.10;;;8.00;99.90;;;;;;4971667;28;21019;-67
2024/03/07 10:33:32;;;;;;;25.93;10.73;;;7.90;99.90;;;;;;4972167;28;20490;-67
2024/03/07 10:36:00;;;;;;;18.97;9.97;;;8.00;99.90;;;;;;4983630;28;20507;-67
2024/03/07 10:38:27;;;;;;;16.30;10.83;;;8.30;99.90;;;;;;4979933;28;20466;-67
2024/03/07 10:40:56;;;;;;;9.03;5.70;;;8.50;99.90;;;;;;4979284;28;20560;-68
2024/03/07 10:43:26;;;;;;;20.53;11.17;;;8.60;99.90;;;;;;4989433;28;20465;-67
2024/03/07 10:45:56;;;;;;;24.37;8.87;;;8.60;99.90;;;;;;4979469;28;20924;-67
2024/03/07 10:48:28;;;;;;;25.33;10.67;;;8.80;99.90;;;;;;4984814;28;20465;-67
2024/03/07 10:51:09;;;;;;;4.27;3.80;;;9.10;99.90;;;;;;4980748;28;20466;-67
2024/03/07 10:53:46;;;;;;;12.43;6.77;;;8.90;99.90;;;;;;4982068;28;20582;-67
2024/03/07 10:56:25;;;;;;;11.60;5.50;;;8.70;99.90;;;;;;4983159;28;20462;-67
2024/03/07 10:59:00;;;;;;;6.43;5.70;;;8.70;99.90;;;;;;4980484;28;20493;-66
2024/03/07 11:01:31;;;;;;;17.17;7.37;;;8.60;99.90;;;;;;4982652;28;20462;-67
2024/03/07 11:03:58;;;;;;;11.60;7.63;;;8.80;99.90;;;;;;4980415;28;20455;-67
2024/03/07 11:06:26;;;;;;;19.57;9.60;;;8.90;99.90;;;;;;4985296;28;20524;-67
2024/03/07 11:08:54;;;;;;;7.97;4.13;;;9.10;99.90;;;;;;4983740;28;20464;-67
2024/03/07 11:11:23;;;;;;;12.50;7.30;;;8.90;99.90;;;;;;4986134;28;20477;-66
2024/03/07 11:13:50;;;;;;;10.70;6.30;;;9.00;99.90;;;;;;4986677;28;20520;-67
2024/03/07 11:16:19;;;;;;;14.13;6.60;;;9.40;99.90;;;;;;4984376;28;20457;-67
2024/03/07 11:19:21;;;;;;;6.63;5.43;;;9.40;99.90;;;;;;4979974;28;20597;-67
2024/03/07 11:21:48;;;;;;;15.00;8.30;;;9.30;99.90;;;;;;4975916;28;20571;-68
2024/03/07 11:24:24;;;;;;;16.63;7.40;;;9.20;99.90;;;;;;4985554;28;20462;-67
2024/03/07 11:26:53;;;;;;;9.63;5.17;;;9.30;99.90;;;;;;4985459;28;20465;-67
2024/03/07 11:29:44;;;;;;;4.23;3.83;;;9.50;99.90;;;;;;4988665;28;20480;-67
2024/03/07 11:32:13;;;;;;;17.73;7.20;;;9.70;99.90;;;;;;4983822;28;20457;-67
2024/03/07 11:34:42;;;;;;;7.07;5.23;;;9.90;99.90;;;;;;4981480;28;20458;-67
2024/03/07 11:37:17;;;;;;;12.30;5.17;;;10.20;99.90;;;;;;4987017;28;20461;-67
2024/03/07 11:39:46;;;;;;;7.17;5.03;;;10.40;99.90;;;;;;4981536;28;20481;-68
2024/03/07 11:42:22;;;;;;;4.63;3.37;;;10.20;99.90;;;;;;4983941;28;20510;-67
2024/03/07 11:44:51;;;;;;;7.07;3.23;;;10.50;99.90;;;;;;4981547;28;20829;-67
2024/03/07 11:47:19;;;;;;;12.93;3.50;;;10.20;99.90;;;;;;4983628;28;20473;-68
2024/03/07 11:49:48;;;;;;;13.83;7.17;;;9.70;99.90;;;;;;4978609;28;20486;-67
2024/03/07 11:52:16;;;;;;;11.43;4.40;;;9.70;99.90;;;;;;4989677;28;20473;-68
2024/03/07 11:54:46;;;;;;;12.83;7.73;;;9.70;99.90;;;;;;4987160;28;20460;-68
2024/03/07 11:57:14;;;;;;;16.80;7.60;;;9.60;99.90;;;;;;4981529;28;21002;-67
2024/03/07 11:59:45;;;;;;;13.60;8.43;;;9.50;99.90;;;;;;4980350;28;20486;-68
2024/03/07 12:02:13;;;;;;;8.67;5.17;;;9.70;99.90;;;;;;4985338;28;20464;-68
2024/03/07 12:04:42;;;;;;;8.70;7.20;;;9.80;99.90;;;;;;4983754;28;21849;-68
2024/03/07 12:07:10;;;;;;;9.53;5.17;;;9.50;99.90;;;;;;4983500;28;20469;-67
2024/03/07 12:09:37;;;;;;;12.40;7.07;;;9.20;99.90;;;;;;4984740;28;20977;-67
2024/03/07 12:12:05;;;;;;;13.77;7.33;;;9.50;99.90;;;;;;4991269;28;20949;-67
2024/03/07 12:14:33;;;;;;;4.73;2.63;;;9.80;99.90;;;;;;4985726;28;20513;-67
2024/03/07 12:17:00;;;;;;;11.43;4.87;;;9.70;99.90;;;;;;4984920;28;20466;-67
2024/03/07 12:19:27;;;;;;;19.53;6.10;;;9.70;99.90;;;;;;4977066;28;20565;-67
2024/03/07 12:22:01;;;;;;;8.20;4.93;;;10.30;99.90;;;;;;4979656;28;20470;-67
2024/03/07 12:24:28;;;;;;;8.83;6.23;;;11.60;99.90;;;;;;4989376;28;20476;-68
2024/03/07 12:27:05;;;;;;;16.30;6.37;;;12.70;99.90;;;;;;4987405;28;20454;-67
2024/03/07 12:29:33;;;;;;;13.53;5.50;;;13.60;99.90;;;;;;4989824;28;20481;-67
2024/03/07 12:32:00;;;;;;;6.27;4.43;;;14.10;99.90;;;;;;4982360;28;20454;-67
2024/03/07 12:34:30;;;;;;;4.37;3.30;;;13.10;99.90;;;;;;4988302;28;20490;-67
2024/03/07 12:36:58;;;;;;;5.33;3.50;;;12.60;99.90;;;;;;4983654;28;20842;-67
2024/03/07 12:39:32;;;;;;;7.80;4.53;;;13.00;99.90;;;;;;4983606;28;20482;-69
2024/03/07 12:41:59;;;;;;;8.40;5.93;;;12.50;99.90;;;;;;4983288;28;20477;-68
2024/03/07 12:44:27;;;;;;;8.40;4.80;;;11.80;99.90;;;;;;4988197;28;20587;-67
2024/03/07 12:46:55;;;;;;;6.97;3.90;;;11.60;99.90;;;;;;4980962;28;20470;-67